sensor_id;sensor_type;location;lat;lon;timestamp;P1;durP1;ratioP1;P2;durP2;ratioP2
40847;SDS011;26570;50.962;5.340;2022-07-25T00:00:55;4.97;;;3.87;;
40847;SDS011;26570;50.962;5.340;2022-07-25T00:03:40;7.70;;;3.53;;
40847;SDS011;26570;50.962;5.340;2022-07-25T00:06:25;4.63;;;3.40;;
40847;SDS011;26570;50.962;5.340;2022-07-25T00:09:09;5.23;;;3.23;;
40847;SDS011;26570;50.962;5.340;2022-07-25T00:11:54;8.07;;;3.30;;
40847;SDS011;26570;50.962;5.340;2022-07-25T00:14:39;5.97;;;4.40;;
40847;SDS011;26570;50.962;5.340;2022-07-25T00:17:24;6.97;;;3.47;;
40847;SDS011;26570;50.962;5.340;2022-07-25T00:20:09;4.50;;;3.10;;
40847;SDS011;26570;50.962;5.340;2022-07-25T00:22:54;8.10;;;3.50;;
40847;SDS011;26570;50.962;5.340;2022-07-25T00:25:39;5.60;;;3.73;;
40847;SDS011;26570;50.962;5.340;2022-07-25T00:28:23;7.13;;;3.30;;
40847;SDS011;26570;50.962;5.340;2022-07-25T00:31:08;7.87;;;4.67;;
40847;SDS011;26570;50.962;5.340;2022-07-25T00:33:53;4.23;;;3.77;;
40847;SDS011;26570;50.962;5.340;2022-07-25T00:36:38;5.40;;;3.97;;
40847;SDS011;26570;50.962;5.340;2022-07-25T00:39:23;4.17;;;3.37;;
40847;SDS011;26570;50.962;5.340;2022-07-25T00:42:07;7.93;;;3.27;;
40847;SDS011;26570;50.962;5.340;2022-07-25T00:44:52;5.03;;;4.00;;
40847;SDS011;26570;50.962;5.340;2022-07-25T00:47:37;4.80;;;3.40;;
40847;SDS011;26570;50.962;5.340;2022-07-25T00:50:22;7.30;;;3.77;;
40847;SDS011;26570;50.962;5.340;2022-07-25T00:53:07;6.97;;;3.83;;
40847;SDS011;26570;50.962;5.340;2022-07-25T00:55:53;7.23;;;3.87;;
40847;SDS011;26570;50.962;5.340;2022-07-25T00:58:37;5.63;;;3.57;;
40847;SDS011;26570;50.962;5.340;2022-07-25T01:01:22;4.07;;;3.30;;
40847;SDS011;26570;50.962;5.340;2022-07-25T01:04:07;5.70;;;4.00;;
40847;SDS011;26570;50.962;5.340;2022-07-25T01:06:53;4.83;;;3.83;;
40847;SDS011;26570;50.962;5.340;2022-07-25T01:09:38;7.37;;;4.47;;
40847;SDS011;26570;50.962;5.340;2022-07-25T01:12:23;5.93;;;3.83;;
40847;SDS011;26570;50.962;5.340;2022-07-25T01:15:08;6.67;;;4.27;;
40847;SDS011;26570;50.962;5.340;2022-07-25T01:17:53;8.10;;;3.80;;
40847;SDS011;26570;50.962;5.340;2022-07-25T01:20:38;7.73;;;4.00;;
40847;SDS011;26570;50.962;5.340;2022-07-25T01:23:22;5.93;;;4.73;;
40847;SDS011;26570;50.962;5.340;2022-07-25T01:26:07;8.97;;;4.37;;
40847;SDS011;26570;50.962;5.340;2022-07-25T01:28:52;9.80;;;4.37;;
40847;SDS011;26570;50.962;5.340;2022-07-25T01:31:37;9.70;;;4.27;;
40847;SDS011;26570;50.962;5.340;2022-07-25T01:34:22;4.83;;;4.30;;
40847;SDS011;26570;50.962;5.340;2022-07-25T01:37:07;5.80;;;4.67;;
40847;SDS011;26570;50.962;5.340;2022-07-25T01:39:52;8.87;;;4.17;;
40847;SDS011;26570;50.962;5.340;2022-07-25T01:42:37;6.10;;;3.93;;
40847;SDS011;26570;50.962;5.340;2022-07-25T01:45:22;6.13;;;4.10;;
40847;SDS011;26570;50.962;5.340;2022-07-25T01:48:08;4.27;;;3.27;;
40847;SDS011;26570;50.962;5.340;2022-07-25T01:50:53;6.80;;;3.80;;
40847;SDS011;26570;50.962;5.340;2022-07-25T01:53:38;4.93;;;4.30;;
40847;SDS011;26570;50.962;5.340;2022-07-25T01:56:23;9.90;;;4.43;;
40847;SDS011;26570;50.962;5.340;2022-07-25T01:59:08;4.43;;;3.70;;
40847;SDS011;26570;50.962;5.340;2022-07-25T02:01:53;5.33;;;3.50;;
40847;SDS011;26570;50.962;5.340;2022-07-25T02:04:38;9.50;;;3.67;;
40847;SDS011;26570;50.962;5.340;2022-07-25T02:07:22;4.87;;;3.57;;
40847;SDS011;26570;50.962;5.340;2022-07-25T02:10:07;5.13;;;3.73;;
40847;SDS011;26570;50.962;5.340;2022-07-25T02:12:53;5.80;;;3.77;;
40847;SDS011;26570;50.962;5.340;2022-07-25T02:15:38;6.07;;;3.70;;
40847;SDS011;26570;50.962;5.340;2022-07-25T02:18:23;6.60;;;2.97;;
40847;SDS011;26570;50.962;5.340;2022-07-25T02:21:08;4.73;;;3.63;;
40847;SDS011;26570;50.962;5.340;2022-07-25T02:23:53;8.17;;;3.90;;
40847;SDS011;26570;50.962;5.340;2022-07-25T02:26:39;7.23;;;4.03;;
40847;SDS011;26570;50.962;5.340;2022-07-25T02:29:23;4.30;;;3.10;;
40847;SDS011;26570;50.962;5.340;2022-07-25T02:32:08;8.30;;;3.37;;
40847;SDS011;26570;50.962;5.340;2022-07-25T02:34:52;3.33;;;3.03;;
40847;SDS011;26570;50.962;5.340;2022-07-25T02:37:37;3.93;;;2.97;;
40847;SDS011;26570;50.962;5.340;2022-07-25T02:40:23;2.97;;;2.47;;
40847;SDS011;26570;50.962;5.340;2022-07-25T02:43:08;4.10;;;2.50;;
40847;SDS011;26570;50.962;5.340;2022-07-25T02:45:52;4.37;;;3.00;;
40847;SDS011;26570;50.962;5.340;2022-07-25T02:48:37;4.13;;;2.63;;
40847;SDS011;26570;50.962;5.340;2022-07-25T02:51:23;7.43;;;3.57;;
40847;SDS011;26570;50.962;5.340;2022-07-25T02:54:08;4.73;;;3.33;;
40847;SDS011;26570;50.962;5.340;2022-07-25T02:56:52;5.63;;;3.03;;
40847;SDS011;26570;50.962;5.340;2022-07-25T02:59:38;4.23;;;3.13;;
40847;SDS011;26570;50.962;5.340;2022-07-25T03:02:23;5.93;;;2.97;;
40847;SDS011;26570;50.962;5.340;2022-07-25T03:05:08;5.37;;;3.27;;
40847;SDS011;26570;50.962;5.340;2022-07-25T03:07:54;5.77;;;3.10;;
40847;SDS011;26570;50.962;5.340;2022-07-25T03:10:40;3.83;;;2.77;;
40847;SDS011;26570;50.962;5.340;2022-07-25T03:13:25;4.80;;;3.07;;
40847;SDS011;26570;50.962;5.340;2022-07-25T03:16:10;5.53;;;3.20;;
40847;SDS011;26570;50.962;5.340;2022-07-25T03:18:55;6.83;;;3.60;;
40847;SDS011;26570;50.962;5.340;2022-07-25T03:21:41;3.97;;;3.03;;
40847;SDS011;26570;50.962;5.340;2022-07-25T03:24:26;4.23;;;2.80;;
40847;SDS011;26570;50.962;5.340;2022-07-25T03:27:11;4.07;;;3.23;;
40847;SDS011;26570;50.962;5.340;2022-07-25T03:30:00;5.77;;;3.20;;
40847;SDS011;26570;50.962;5.340;2022-07-25T03:32:46;5.33;;;3.20;;
40847;SDS011;26570;50.962;5.340;2022-07-25T03:35:30;5.00;;;3.00;;
40847;SDS011;26570;50.962;5.340;2022-07-25T03:38:16;4.87;;;3.00;;
40847;SDS011;26570;50.962;5.340;2022-07-25T03:41:03;4.90;;;3.20;;
40847;SDS011;26570;50.962;5.340;2022-07-25T03:43:48;4.37;;;3.23;;
40847;SDS011;26570;50.962;5.340;2022-07-25T03:46:33;6.37;;;3.07;;
40847;SDS011;26570;50.962;5.340;2022-07-25T03:49:18;4.77;;;4.17;;
40847;SDS011;26570;50.962;5.340;2022-07-25T03:52:03;8.10;;;2.80;;
40847;SDS011;26570;50.962;5.340;2022-07-25T03:54:48;4.30;;;2.83;;
40847;SDS011;26570;50.962;5.340;2022-07-25T03:57:33;5.37;;;3.00;;
40847;SDS011;26570;50.962;5.340;2022-07-25T04:00:19;4.63;;;3.33;;
40847;SDS011;26570;50.962;5.340;2022-07-25T04:03:04;6.63;;;2.97;;
40847;SDS011;26570;50.962;5.340;2022-07-25T04:05:49;4.27;;;2.77;;
40847;SDS011;26570;50.962;5.340;2022-07-25T04:08:33;4.40;;;2.83;;
40847;SDS011;26570;50.962;5.340;2022-07-25T04:11:18;4.87;;;2.90;;
40847;SDS011;26570;50.962;5.340;2022-07-25T04:14:03;3.67;;;3.17;;
40847;SDS011;26570;50.962;5.340;2022-07-25T04:16:49;7.80;;;3.80;;
40847;SDS011;26570;50.962;5.340;2022-07-25T04:19:35;6.27;;;3.40;;
40847;SDS011;26570;50.962;5.340;2022-07-25T04:22:19;5.83;;;3.17;;
40847;SDS011;26570;50.962;5.340;2022-07-25T04:25:05;11.77;;;3.77;;
40847;SDS011;26570;50.962;5.340;2022-07-25T04:27:50;5.17;;;3.83;;
40847;SDS011;26570;50.962;5.340;2022-07-25T04:30:35;5.33;;;3.07;;
40847;SDS011;26570;50.962;5.340;2022-07-25T04:33:20;5.97;;;3.20;;
40847;SDS011;26570;50.962;5.340;2022-07-25T04:36:06;8.50;;;3.50;;
40847;SDS011;26570;50.962;5.340;2022-07-25T04:38:51;4.10;;;2.90;;
40847;SDS011;26570;50.962;5.340;2022-07-25T04:41:36;6.77;;;3.43;;
40847;SDS011;26570;50.962;5.340;2022-07-25T04:44:21;6.10;;;3.30;;
40847;SDS011;26570;50.962;5.340;2022-07-25T04:47:06;5.30;;;2.50;;
40847;SDS011;26570;50.962;5.340;2022-07-25T04:49:51;4.77;;;2.40;;
40847;SDS011;26570;50.962;5.340;2022-07-25T04:52:35;8.43;;;2.83;;
40847;SDS011;26570;50.962;5.340;2022-07-25T04:55:21;4.78;;;2.65;;
40847;SDS011;26570;50.962;5.340;2022-07-25T04:58:07;7.22;;;2.85;;
40847;SDS011;26570;50.962;5.340;2022-07-25T05:00:52;4.73;;;2.53;;
40847;SDS011;26570;50.962;5.340;2022-07-25T05:03:37;3.43;;;2.20;;
40847;SDS011;26570;50.962;5.340;2022-07-25T05:06:23;5.43;;;2.67;;
40847;SDS011;26570;50.962;5.340;2022-07-25T05:09:09;3.60;;;2.10;;
40847;SDS011;26570;50.962;5.340;2022-07-25T05:11:54;4.00;;;2.60;;
40847;SDS011;26570;50.962;5.340;2022-07-25T05:14:40;3.37;;;2.40;;
40847;SDS011;26570;50.962;5.340;2022-07-25T05:17:25;4.93;;;2.22;;
40847;SDS011;26570;50.962;5.340;2022-07-25T05:20:11;5.15;;;2.28;;
40847;SDS011;26570;50.962;5.340;2022-07-25T05:22:56;6.50;;;2.10;;
40847;SDS011;26570;50.962;5.340;2022-07-25T05:25:42;6.72;;;2.40;;
40847;SDS011;26570;50.962;5.340;2022-07-25T05:28:27;6.32;;;3.03;;
40847;SDS011;26570;50.962;5.340;2022-07-25T05:31:12;6.32;;;2.28;;
40847;SDS011;26570;50.962;5.340;2022-07-25T05:33:57;2.30;;;1.95;;
40847;SDS011;26570;50.962;5.340;2022-07-25T05:36:42;2.72;;;1.88;;
40847;SDS011;26570;50.962;5.340;2022-07-25T05:39:28;3.22;;;2.30;;
40847;SDS011;26570;50.962;5.340;2022-07-25T05:42:13;6.43;;;1.90;;
40847;SDS011;26570;50.962;5.340;2022-07-25T05:44:58;3.95;;;1.83;;
40847;SDS011;26570;50.962;5.340;2022-07-25T05:47:44;4.15;;;1.42;;
40847;SDS011;26570;50.962;5.340;2022-07-25T05:50:28;3.33;;;1.98;;
40847;SDS011;26570;50.962;5.340;2022-07-25T05:53:13;4.25;;;1.83;;
40847;SDS011;26570;50.962;5.340;2022-07-25T05:55:58;3.70;;;1.70;;
40847;SDS011;26570;50.962;5.340;2022-07-25T05:58:43;4.05;;;1.55;;
40847;SDS011;26570;50.962;5.340;2022-07-25T06:01:29;4.35;;;1.90;;
40847;SDS011;26570;50.962;5.340;2022-07-25T06:04:14;2.85;;;1.63;;
40847;SDS011;26570;50.962;5.340;2022-07-25T06:06:59;5.10;;;1.60;;
40847;SDS011;26570;50.962;5.340;2022-07-25T06:09:44;4.30;;;2.47;;
40847;SDS011;26570;50.962;5.340;2022-07-25T06:12:29;4.35;;;2.05;;
40847;SDS011;26570;50.962;5.340;2022-07-25T06:15:16;5.15;;;1.98;;
40847;SDS011;26570;50.962;5.340;2022-07-25T06:18:03;2.67;;;1.75;;
40847;SDS011;26570;50.962;5.340;2022-07-25T06:20:49;6.57;;;1.77;;
40847;SDS011;26570;50.962;5.340;2022-07-25T06:23:34;3.17;;;1.60;;
40847;SDS011;26570;50.962;5.340;2022-07-25T06:26:19;6.95;;;1.95;;
40847;SDS011;26570;50.962;5.340;2022-07-25T06:29:04;3.85;;;1.70;;
40847;SDS011;26570;50.962;5.340;2022-07-25T06:31:49;2.58;;;1.45;;
40847;SDS011;26570;50.962;5.340;2022-07-25T06:34:34;2.88;;;1.45;;
40847;SDS011;26570;50.962;5.340;2022-07-25T06:37:20;2.78;;;1.52;;
40847;SDS011;26570;50.962;5.340;2022-07-25T06:40:05;3.28;;;1.92;;
40847;SDS011;26570;50.962;5.340;2022-07-25T06:42:51;5.82;;;1.63;;
40847;SDS011;26570;50.962;5.340;2022-07-25T06:45:36;5.15;;;1.50;;
40847;SDS011;26570;50.962;5.340;2022-07-25T06:48:21;2.28;;;1.20;;
40847;SDS011;26570;50.962;5.340;2022-07-25T06:51:07;4.05;;;1.20;;
40847;SDS011;26570;50.962;5.340;2022-07-25T06:53:52;2.33;;;1.20;;
40847;SDS011;26570;50.962;5.340;2022-07-25T06:56:36;4.78;;;1.10;;
40847;SDS011;26570;50.962;5.340;2022-07-25T06:59:21;5.00;;;0.95;;
40847;SDS011;26570;50.962;5.340;2022-07-25T07:02:06;4.13;;;1.05;;
40847;SDS011;26570;50.962;5.340;2022-07-25T07:04:51;3.15;;;0.90;;
40847;SDS011;26570;50.962;5.340;2022-07-25T07:07:36;2.78;;;0.90;;
40847;SDS011;26570;50.962;5.340;2022-07-25T07:10:21;2.60;;;1.10;;
40847;SDS011;26570;50.962;5.340;2022-07-25T07:13:11;4.03;;;0.80;;
40847;SDS011;26570;50.962;5.340;2022-07-25T07:15:58;4.55;;;0.90;;
40847;SDS011;26570;50.962;5.340;2022-07-25T07:18:43;3.00;;;0.80;;
40847;SDS011;26570;50.962;5.340;2022-07-25T07:21:29;2.35;;;0.70;;
40847;SDS011;26570;50.962;5.340;2022-07-25T07:24:13;3.60;;;0.80;;
40847;SDS011;26570;50.962;5.340;2022-07-25T07:26:58;1.88;;;0.70;;
40847;SDS011;26570;50.962;5.340;2022-07-25T07:29:43;4.25;;;0.77;;
40847;SDS011;26570;50.962;5.340;2022-07-25T07:32:29;2.05;;;0.60;;
40847;SDS011;26570;50.962;5.340;2022-07-25T07:35:14;4.68;;;1.25;;
40847;SDS011;26570;50.962;5.340;2022-07-25T07:38:00;4.35;;;0.90;;
40847;SDS011;26570;50.962;5.340;2022-07-25T07:40:45;3.17;;;0.63;;
40847;SDS011;26570;50.962;5.340;2022-07-25T07:43:30;2.67;;;0.60;;
40847;SDS011;26570;50.962;5.340;2022-07-25T07:46:14;5.35;;;0.80;;
40847;SDS011;26570;50.962;5.340;2022-07-25T07:49:00;3.78;;;0.70;;
40847;SDS011;26570;50.962;5.340;2022-07-25T07:51:45;4.15;;;0.70;;
40847;SDS011;26570;50.962;5.340;2022-07-25T07:54:30;6.80;;;0.60;;
40847;SDS011;26570;50.962;5.340;2022-07-25T07:57:34;3.17;;;0.57;;
40847;SDS011;26570;50.962;5.340;2022-07-25T08:00:19;4.43;;;0.60;;
40847;SDS011;26570;50.962;5.340;2022-07-25T08:03:05;3.83;;;0.50;;
40847;SDS011;26570;50.962;5.340;2022-07-25T08:05:53;2.80;;;0.40;;
40847;SDS011;26570;50.962;5.340;2022-07-25T08:08:38;3.25;;;0.40;;
40847;SDS011;26570;50.962;5.340;2022-07-25T08:11:23;1.88;;;0.50;;
40847;SDS011;26570;50.962;5.340;2022-07-25T08:14:10;5.57;;;0.50;;
40847;SDS011;26570;50.962;5.340;2022-07-25T08:16:55;2.85;;;0.50;;
40847;SDS011;26570;50.962;5.340;2022-07-25T08:19:41;3.60;;;0.43;;
40847;SDS011;26570;50.962;5.340;2022-07-25T08:22:36;1.67;;;0.40;;
40847;SDS011;26570;50.962;5.340;2022-07-25T08:25:23;2.80;;;0.30;;
40847;SDS011;26570;50.962;5.340;2022-07-25T08:28:08;5.38;;;0.40;;
40847;SDS011;26570;50.962;5.340;2022-07-25T08:30:53;1.95;;;0.30;;
40847;SDS011;26570;50.962;5.340;2022-07-25T08:33:38;3.72;;;0.40;;
40847;SDS011;26570;50.962;5.340;2022-07-25T08:36:22;3.05;;;0.40;;
40847;SDS011;26570;50.962;5.340;2022-07-25T08:39:07;2.47;;;0.50;;
40847;SDS011;26570;50.962;5.340;2022-07-25T08:41:52;2.95;;;0.40;;
40847;SDS011;26570;50.962;5.340;2022-07-25T08:44:38;1.98;;;0.40;;
40847;SDS011;26570;50.962;5.340;2022-07-25T08:47:25;1.88;;;0.30;;
40847;SDS011;26570;50.962;5.340;2022-07-25T08:50:13;3.38;;;0.32;;
40847;SDS011;26570;50.962;5.340;2022-07-25T08:53:00;1.63;;;0.30;;
40847;SDS011;26570;50.962;5.340;2022-07-25T08:55:45;3.05;;;0.32;;
40847;SDS011;26570;50.962;5.340;2022-07-25T08:58:30;3.15;;;0.30;;
40847;SDS011;26570;50.962;5.340;2022-07-25T09:01:15;1.63;;;0.30;;
40847;SDS011;26570;50.962;5.340;2022-07-25T09:04:00;5.13;;;0.32;;
40847;SDS011;26570;50.962;5.340;2022-07-25T09:06:49;2.10;;;0.30;;
40847;SDS011;26570;50.962;5.340;2022-07-25T09:09:34;0.90;;;0.25;;
40847;SDS011;26570;50.962;5.340;2022-07-25T09:12:24;1.85;;;0.30;;
40847;SDS011;26570;50.962;5.340;2022-07-25T09:15:10;2.47;;;0.20;;
40847;SDS011;26570;50.962;5.340;2022-07-25T09:18:06;1.15;;;0.30;;
40847;SDS011;26570;50.962;5.340;2022-07-25T09:20:54;4.75;;;0.30;;
40847;SDS011;26570;50.962;5.340;2022-07-25T09:23:41;4.38;;;0.30;;
40847;SDS011;26570;50.962;5.340;2022-07-25T09:26:26;3.08;;;0.25;;
40847;SDS011;26570;50.962;5.340;2022-07-25T09:29:17;3.03;;;0.70;;
40847;SDS011;26570;50.962;5.340;2022-07-25T09:32:16;4.25;;;0.40;;
40847;SDS011;26570;50.962;5.340;2022-07-25T09:35:02;1.05;;;0.20;;
40847;SDS011;26570;50.962;5.340;2022-07-25T09:37:47;1.83;;;0.20;;
40847;SDS011;26570;50.962;5.340;2022-07-25T09:40:31;3.28;;;0.15;;
40847;SDS011;26570;50.962;5.340;2022-07-25T09:43:16;4.03;;;0.30;;
40847;SDS011;26570;50.962;5.340;2022-07-25T09:46:00;2.75;;;0.20;;
40847;SDS011;26570;50.962;5.340;2022-07-25T09:48:45;4.97;;;0.20;;
40847;SDS011;26570;50.962;5.340;2022-07-25T09:51:41;0.98;;;0.20;;
40847;SDS011;26570;50.962;5.340;2022-07-25T09:54:26;3.15;;;0.25;;
40847;SDS011;26570;50.962;5.340;2022-07-25T09:57:13;2.15;;;0.20;;
40847;SDS011;26570;50.962;5.340;2022-07-25T09:59:58;1.75;;;0.20;;
40847;SDS011;26570;50.962;5.340;2022-07-25T10:02:49;2.25;;;0.20;;
40847;SDS011;26570;50.962;5.340;2022-07-25T10:08:37;3.47;;;0.20;;
40847;SDS011;26570;50.962;5.340;2022-07-25T10:11:24;1.83;;;0.20;;
40847;SDS011;26570;50.962;5.340;2022-07-25T10:14:10;0.63;;;0.20;;
40847;SDS011;26570;50.962;5.340;2022-07-25T10:16:55;0.93;;;0.20;;
40847;SDS011;26570;50.962;5.340;2022-07-25T10:19:43;1.25;;;0.20;;
40847;SDS011;26570;50.962;5.340;2022-07-25T10:22:40;1.48;;;0.20;;
40847;SDS011;26570;50.962;5.340;2022-07-25T10:25:27;2.35;;;0.30;;
40847;SDS011;26570;50.962;5.340;2022-07-25T10:28:15;0.90;;;0.20;;
40847;SDS011;26570;50.962;5.340;2022-07-25T10:31:01;0.82;;;0.20;;
40847;SDS011;26570;50.962;5.340;2022-07-25T10:33:49;0.90;;;0.17;;
40847;SDS011;26570;50.962;5.340;2022-07-25T10:36:40;2.20;;;0.30;;
40847;SDS011;26570;50.962;5.340;2022-07-25T10:39:36;3.55;;;0.25;;
40847;SDS011;26570;50.962;5.340;2022-07-25T10:42:22;0.80;;;0.50;;
40847;SDS011;26570;50.962;5.340;2022-07-25T10:45:07;0.73;;;0.25;;
40847;SDS011;26570;50.962;5.340;2022-07-25T10:47:53;2.22;;;0.22;;
40847;SDS011;26570;50.962;5.340;2022-07-25T10:50:45;0.77;;;0.20;;
40847;SDS011;26570;50.962;5.340;2022-07-25T10:53:53;1.58;;;0.20;;
40847;SDS011;26570;50.962;5.340;2022-07-25T10:56:49;2.67;;;0.30;;
40847;SDS011;26570;50.962;5.340;2022-07-25T10:59:35;1.27;;;0.30;;
40847;SDS011;26570;50.962;5.340;2022-07-25T11:02:22;3.92;;;0.30;;
40847;SDS011;26570;50.962;5.340;2022-07-25T11:05:07;1.30;;;0.20;;
40847;SDS011;26570;50.962;5.340;2022-07-25T11:07:52;1.20;;;0.20;;
40847;SDS011;26570;50.962;5.340;2022-07-25T11:10:37;2.55;;;0.20;;
40847;SDS011;26570;50.962;5.340;2022-07-25T11:13:22;2.42;;;0.20;;
40847;SDS011;26570;50.962;5.340;2022-07-25T11:16:07;3.10;;;0.20;;
40847;SDS011;26570;50.962;5.340;2022-07-25T11:18:53;1.48;;;0.20;;
40847;SDS011;26570;50.962;5.340;2022-07-25T11:21:48;1.67;;;0.20;;
40847;SDS011;26570;50.962;5.340;2022-07-25T11:24:39;0.93;;;0.20;;
40847;SDS011;26570;50.962;5.340;2022-07-25T11:27:26;1.77;;;0.20;;
40847;SDS011;26570;50.962;5.340;2022-07-25T11:30:17;0.60;;;0.20;;
40847;SDS011;26570;50.962;5.340;2022-07-25T11:33:06;4.00;;;0.20;;
40847;SDS011;26570;50.962;5.340;2022-07-25T11:35:51;3.60;;;0.38;;
40847;SDS011;26570;50.962;5.340;2022-07-25T11:38:37;1.58;;;0.20;;
40847;SDS011;26570;50.962;5.340;2022-07-25T11:41:27;2.22;;;0.30;;
40847;SDS011;26570;50.962;5.340;2022-07-25T11:44:13;0.60;;;0.20;;
40847;SDS011;26570;50.962;5.340;2022-07-25T11:46:57;1.63;;;0.30;;
40847;SDS011;26570;50.962;5.340;2022-07-25T11:49:47;2.25;;;0.20;;
40847;SDS011;26570;50.962;5.340;2022-07-25T11:52:35;1.25;;;0.20;;
40847;SDS011;26570;50.962;5.340;2022-07-25T11:55:26;1.67;;;0.30;;
40847;SDS011;26570;50.962;5.340;2022-07-25T11:58:12;3.83;;;0.30;;
40847;SDS011;26570;50.962;5.340;2022-07-25T12:00:57;17.15;;;1.48;;
40847;SDS011;26570;50.962;5.340;2022-07-25T12:03:43;0.88;;;0.22;;
40847;SDS011;26570;50.962;5.340;2022-07-25T12:06:30;2.50;;;0.30;;
40847;SDS011;26570;50.962;5.340;2022-07-25T12:09:19;2.97;;;0.20;;
40847;SDS011;26570;50.962;5.340;2022-07-25T12:12:05;4.63;;;0.30;;
40847;SDS011;26570;50.962;5.340;2022-07-25T12:14:52;1.27;;;0.30;;
40847;SDS011;26570;50.962;5.340;2022-07-25T12:17:39;1.45;;;0.30;;
40847;SDS011;26570;50.962;5.340;2022-07-25T12:20:25;1.48;;;0.30;;
40847;SDS011;26570;50.962;5.340;2022-07-25T12:23:16;3.33;;;0.40;;
40847;SDS011;26570;50.962;5.340;2022-07-25T12:26:02;1.33;;;0.45;;
40847;SDS011;26570;50.962;5.340;2022-07-25T12:28:48;2.30;;;0.40;;
40847;SDS011;26570;50.962;5.340;2022-07-25T12:31:34;2.90;;;0.40;;
40847;SDS011;26570;50.962;5.340;2022-07-25T12:34:19;2.97;;;0.32;;
40847;SDS011;26570;50.962;5.340;2022-07-25T12:37:05;4.57;;;0.55;;
40847;SDS011;26570;50.962;5.340;2022-07-25T12:39:51;2.38;;;0.30;;
40847;SDS011;26570;50.962;5.340;2022-07-25T12:42:37;2.38;;;0.40;;
40847;SDS011;26570;50.962;5.340;2022-07-25T12:45:22;2.22;;;0.40;;
40847;SDS011;26570;50.962;5.340;2022-07-25T12:48:08;2.10;;;0.40;;
40847;SDS011;26570;50.962;5.340;2022-07-25T12:50:54;1.13;;;0.30;;
40847;SDS011;26570;50.962;5.340;2022-07-25T12:53:40;5.82;;;0.45;;
40847;SDS011;26570;50.962;5.340;2022-07-25T12:56:25;2.10;;;0.40;;
40847;SDS011;26570;50.962;5.340;2022-07-25T12:59:10;5.15;;;0.82;;
40847;SDS011;26570;50.962;5.340;2022-07-25T13:01:55;5.88;;;0.82;;
40847;SDS011;26570;50.962;5.340;2022-07-25T13:04:41;3.67;;;0.40;;
40847;SDS011;26570;50.962;5.340;2022-07-25T13:07:26;5.50;;;0.40;;
40847;SDS011;26570;50.962;5.340;2022-07-25T13:10:11;1.80;;;0.40;;
40847;SDS011;26570;50.962;5.340;2022-07-25T13:12:56;3.53;;;0.40;;
40847;SDS011;26570;50.962;5.340;2022-07-25T13:15:47;2.40;;;0.40;;
40847;SDS011;26570;50.962;5.340;2022-07-25T13:18:33;2.55;;;0.38;;
40847;SDS011;26570;50.962;5.340;2022-07-25T13:21:19;2.80;;;0.30;;
40847;SDS011;26570;50.962;5.340;2022-07-25T13:24:05;3.90;;;0.40;;
40847;SDS011;26570;50.962;5.340;2022-07-25T13:26:50;5.43;;;1.02;;
40847;SDS011;26570;50.962;5.340;2022-07-25T13:29:36;3.38;;;0.38;;
40847;SDS011;26570;50.962;5.340;2022-07-25T13:32:21;3.58;;;0.40;;
40847;SDS011;26570;50.962;5.340;2022-07-25T13:35:06;1.80;;;0.25;;
40847;SDS011;26570;50.962;5.340;2022-07-25T13:37:52;3.53;;;0.30;;
40847;SDS011;26570;50.962;5.340;2022-07-25T13:40:37;9.38;;;0.30;;
40847;SDS011;26570;50.962;5.340;2022-07-25T13:43:25;5.07;;;0.30;;
40847;SDS011;26570;50.962;5.340;2022-07-25T13:46:10;5.60;;;0.30;;
40847;SDS011;26570;50.962;5.340;2022-07-25T13:48:55;2.65;;;0.38;;
40847;SDS011;26570;50.962;5.340;2022-07-25T13:51:40;3.78;;;0.40;;
40847;SDS011;26570;50.962;5.340;2022-07-25T13:54:25;2.30;;;0.38;;
40847;SDS011;26570;50.962;5.340;2022-07-25T13:57:10;4.97;;;0.40;;
40847;SDS011;26570;50.962;5.340;2022-07-25T13:59:55;2.70;;;0.40;;
40847;SDS011;26570;50.962;5.340;2022-07-25T14:02:40;3.45;;;0.50;;
40847;SDS011;26570;50.962;5.340;2022-07-25T14:05:25;5.38;;;0.38;;
40847;SDS011;26570;50.962;5.340;2022-07-25T14:08:10;5.93;;;0.35;;
40847;SDS011;26570;50.962;5.340;2022-07-25T14:10:55;4.65;;;0.32;;
40847;SDS011;26570;50.962;5.340;2022-07-25T14:13:41;9.30;;;1.23;;
40847;SDS011;26570;50.962;5.340;2022-07-25T14:16:27;2.65;;;0.40;;
40847;SDS011;26570;50.962;5.340;2022-07-25T14:19:12;3.33;;;0.35;;
40847;SDS011;26570;50.962;5.340;2022-07-25T14:21:58;4.43;;;0.40;;
40847;SDS011;26570;50.962;5.340;2022-07-25T14:24:44;3.63;;;0.30;;
40847;SDS011;26570;50.962;5.340;2022-07-25T14:27:29;4.65;;;0.40;;
40847;SDS011;26570;50.962;5.340;2022-07-25T14:30:14;5.75;;;0.40;;
40847;SDS011;26570;50.962;5.340;2022-07-25T14:33:00;4.40;;;0.50;;
40847;SDS011;26570;50.962;5.340;2022-07-25T14:35:46;5.72;;;0.40;;
40847;SDS011;26570;50.962;5.340;2022-07-25T14:38:31;6.85;;;0.40;;
40847;SDS011;26570;50.962;5.340;2022-07-25T14:41:16;2.55;;;0.40;;
40847;SDS011;26570;50.962;5.340;2022-07-25T14:44:01;4.03;;;0.50;;
40847;SDS011;26570;50.962;5.340;2022-07-25T14:46:47;2.75;;;0.52;;
40847;SDS011;26570;50.962;5.340;2022-07-25T14:49:32;2.92;;;0.40;;
40847;SDS011;26570;50.962;5.340;2022-07-25T14:52:18;4.15;;;0.30;;
40847;SDS011;26570;50.962;5.340;2022-07-25T14:55:03;6.85;;;0.73;;
40847;SDS011;26570;50.962;5.340;2022-07-25T14:57:48;5.97;;;0.60;;
40847;SDS011;26570;50.962;5.340;2022-07-25T15:00:33;3.40;;;0.40;;
40847;SDS011;26570;50.962;5.340;2022-07-25T15:03:18;2.40;;;0.40;;
40847;SDS011;26570;50.962;5.340;2022-07-25T15:06:04;3.67;;;0.30;;
40847;SDS011;26570;50.962;5.340;2022-07-25T15:08:53;4.93;;;0.38;;
40847;SDS011;26570;50.962;5.340;2022-07-25T15:11:38;10.65;;;1.55;;
40847;SDS011;26570;50.962;5.340;2022-07-25T15:14:23;3.75;;;0.32;;
40847;SDS011;26570;50.962;5.340;2022-07-25T15:17:08;3.28;;;0.30;;
40847;SDS011;26570;50.962;5.340;2022-07-25T15:19:53;2.30;;;0.30;;
40847;SDS011;26570;50.962;5.340;2022-07-25T15:22:38;2.30;;;0.40;;
40847;SDS011;26570;50.962;5.340;2022-07-25T15:25:23;3.88;;;0.35;;
40847;SDS011;26570;50.962;5.340;2022-07-25T15:28:08;1.75;;;0.30;;
40847;SDS011;26570;50.962;5.340;2022-07-25T15:30:53;4.53;;;0.20;;
40847;SDS011;26570;50.962;5.340;2022-07-25T15:33:39;2.40;;;0.20;;
40847;SDS011;26570;50.962;5.340;2022-07-25T15:36:24;2.17;;;0.20;;
40847;SDS011;26570;50.962;5.340;2022-07-25T15:39:09;2.92;;;0.30;;
40847;SDS011;26570;50.962;5.340;2022-07-25T15:41:55;2.78;;;0.20;;
40847;SDS011;26570;50.962;5.340;2022-07-25T15:44:40;2.38;;;0.30;;
40847;SDS011;26570;50.962;5.340;2022-07-25T15:47:25;1.15;;;0.20;;
40847;SDS011;26570;50.962;5.340;2022-07-25T15:50:10;1.73;;;0.20;;
40847;SDS011;26570;50.962;5.340;2022-07-25T15:52:55;6.13;;;0.20;;
40847;SDS011;26570;50.962;5.340;2022-07-25T15:55:41;3.28;;;0.20;;
40847;SDS011;26570;50.962;5.340;2022-07-25T15:58:27;2.17;;;0.35;;
40847;SDS011;26570;50.962;5.340;2022-07-25T16:01:12;0.70;;;0.10;;
40847;SDS011;26570;50.962;5.340;2022-07-25T16:03:57;1.58;;;0.10;;
40847;SDS011;26570;50.962;5.340;2022-07-25T16:06:44;3.25;;;0.10;;
40847;SDS011;26570;50.962;5.340;2022-07-25T16:09:29;4.07;;;0.30;;
40847;SDS011;26570;50.962;5.340;2022-07-25T16:12:15;1.92;;;0.25;;
40847;SDS011;26570;50.962;5.340;2022-07-25T16:15:00;7.57;;;0.30;;
40847;SDS011;26570;50.962;5.340;2022-07-25T16:17:46;2.28;;;0.10;;
40847;SDS011;26570;50.962;5.340;2022-07-25T16:20:32;3.90;;;0.20;;
40847;SDS011;26570;50.962;5.340;2022-07-25T16:23:17;4.38;;;0.20;;
40847;SDS011;26570;50.962;5.340;2022-07-25T16:26:03;9.00;;;0.20;;
40847;SDS011;26570;50.962;5.340;2022-07-25T16:28:48;5.90;;;0.28;;
40847;SDS011;26570;50.962;5.340;2022-07-25T16:31:34;3.10;;;0.10;;
40847;SDS011;26570;50.962;5.340;2022-07-25T16:34:19;3.08;;;0.20;;
40847;SDS011;26570;50.962;5.340;2022-07-25T16:37:04;5.72;;;0.17;;
40847;SDS011;26570;50.962;5.340;2022-07-25T16:39:49;4.15;;;0.20;;
40847;SDS011;26570;50.962;5.340;2022-07-25T16:42:34;6.45;;;0.20;;